sensor_id;sensor_type;location;lat;lon;timestamp;P1;durP1;ratioP1;P2;durP2;ratioP2
58760;SDS011;44529;47.464;19.014;2022-08-04T00:00:04;4.07;;;3.20;;
58760;SDS011;44529;47.464;19.014;2022-08-04T00:03:12;3.10;;;2.90;;
58760;SDS011;44529;47.464;19.014;2022-08-04T00:09:45;4.00;;;2.90;;
58760;SDS011;44529;47.464;19.014;2022-08-04T00:12:51;3.62;;;2.92;;
58760;SDS011;44529;47.464;19.014;2022-08-04T00:15:57;3.15;;;2.95;;
58760;SDS011;44529;47.464;19.014;2022-08-04T00:19:04;3.85;;;3.20;;
58760;SDS011;44529;47.464;19.014;2022-08-04T00:22:18;5.35;;;3.20;;
58760;SDS011;44529;47.464;19.014;2022-08-04T00:25:27;3.35;;;3.15;;
58760;SDS011;44529;47.464;19.014;2022-08-04T00:28:30;3.47;;;3.03;;
58760;SDS011;44529;47.464;19.014;2022-08-04T00:31:33;4.50;;;3.10;;
58760;SDS011;44529;47.464;19.014;2022-08-04T00:34:58;5.97;;;3.20;;
58760;SDS011;44529;47.464;19.014;2022-08-04T00:38:01;3.47;;;3.17;;
58760;SDS011;44529;47.464;19.014;2022-08-04T00:44:35;3.87;;;3.47;;
58760;SDS011;44529;47.464;19.014;2022-08-04T00:51:27;3.90;;;3.45;;
58760;SDS011;44529;47.464;19.014;2022-08-04T01:01:28;3.85;;;3.55;;
58760;SDS011;44529;47.464;19.014;2022-08-04T01:05:01;4.93;;;3.72;;
58760;SDS011;44529;47.464;19.014;2022-08-04T01:15:03;3.60;;;3.30;;
58760;SDS011;44529;47.464;19.014;2022-08-04T01:18:21;3.83;;;3.55;;
58760;SDS011;44529;47.464;19.014;2022-08-04T01:31:44;4.10;;;3.55;;
58760;SDS011;44529;47.464;19.014;2022-08-04T01:34:54;4.18;;;3.80;;
58760;SDS011;44529;47.464;19.014;2022-08-04T01:38:06;4.30;;;3.90;;
58760;SDS011;44529;47.464;19.014;2022-08-04T01:41:23;5.18;;;3.85;;
58760;SDS011;44529;47.464;19.014;2022-08-04T01:44:34;3.85;;;3.62;;
58760;SDS011;44529;47.464;19.014;2022-08-04T01:47:48;3.90;;;3.60;;
58760;SDS011;44529;47.464;19.014;2022-08-04T01:50:52;3.90;;;3.45;;
58760;SDS011;44529;47.464;19.014;2022-08-04T01:53:57;4.03;;;3.62;;
58760;SDS011;44529;47.464;19.014;2022-08-04T01:56:59;4.68;;;3.35;;
58760;SDS011;44529;47.464;19.014;2022-08-04T02:00:27;4.68;;;3.90;;
58760;SDS011;44529;47.464;19.014;2022-08-04T02:03:30;4.47;;;3.67;;
58760;SDS011;44529;47.464;19.014;2022-08-04T02:10:28;4.00;;;3.50;;
58760;SDS011;44529;47.464;19.014;2022-08-04T02:13:49;6.07;;;3.60;;
58760;SDS011;44529;47.464;19.014;2022-08-04T02:17:54;3.80;;;3.55;;
58760;SDS011;44529;47.464;19.014;2022-08-04T02:20:48;5.70;;;3.58;;
58760;SDS011;44529;47.464;19.014;2022-08-04T02:27:07;3.90;;;3.58;;
58760;SDS011;44529;47.464;19.014;2022-08-04T02:30:11;4.05;;;3.62;;
58760;SDS011;44529;47.464;19.014;2022-08-04T02:33:22;3.90;;;3.25;;
58760;SDS011;44529;47.464;19.014;2022-08-04T02:36:34;5.72;;;3.55;;
58760;SDS011;44529;47.464;19.014;2022-08-04T02:39:38;4.72;;;3.62;;
58760;SDS011;44529;47.464;19.014;2022-08-04T02:42:49;3.75;;;3.45;;
58760;SDS011;44529;47.464;19.014;2022-08-04T02:45:55;3.58;;;3.35;;
58760;SDS011;44529;47.464;19.014;2022-08-04T02:49:00;6.62;;;3.72;;
58760;SDS011;44529;47.464;19.014;2022-08-04T02:52:04;3.40;;;3.10;;
58760;SDS011;44529;47.464;19.014;2022-08-04T02:55:10;3.85;;;3.45;;
58760;SDS011;44529;47.464;19.014;2022-08-04T02:58:15;4.35;;;3.40;;
58760;SDS011;44529;47.464;19.014;2022-08-04T03:01:21;3.70;;;3.10;;
58760;SDS011;44529;47.464;19.014;2022-08-04T03:48:44;3.35;;;3.05;;
58760;SDS011;44529;47.464;19.014;2022-08-04T03:59:17;6.72;;;3.40;;
58760;SDS011;44529;47.464;19.014;2022-08-04T04:19:30;3.20;;;2.80;;
58760;SDS011;44529;47.464;19.014;2022-08-04T04:43:45;3.20;;;3.00;;
58760;SDS011;44529;47.464;19.014;2022-08-04T04:57:40;4.55;;;3.15;;
58760;SDS011;44529;47.464;19.014;2022-08-04T05:14:49;3.67;;;3.10;;
58760;SDS011;44529;47.464;19.014;2022-08-04T05:17:52;3.70;;;3.37;;
58760;SDS011;44529;47.464;19.014;2022-08-04T05:21:03;7.60;;;3.30;;
58760;SDS011;44529;47.464;19.014;2022-08-04T05:24:19;4.75;;;2.95;;
58760;SDS011;44529;47.464;19.014;2022-08-04T05:27:27;11.80;;;4.12;;
58760;SDS011;44529;47.464;19.014;2022-08-04T05:30:42;9.68;;;3.80;;
58760;SDS011;44529;47.464;19.014;2022-08-04T05:33:54;8.85;;;3.33;;
58760;SDS011;44529;47.464;19.014;2022-08-04T05:37:00;4.60;;;3.30;;
58760;SDS011;44529;47.464;19.014;2022-08-04T05:40:08;4.25;;;3.42;;
58760;SDS011;44529;47.464;19.014;2022-08-04T05:43:12;4.18;;;3.20;;
58760;SDS011;44529;47.464;19.014;2022-08-04T05:46:17;4.68;;;3.70;;
58760;SDS011;44529;47.464;19.014;2022-08-04T05:49:20;12.57;;;3.30;;
58760;SDS011;44529;47.464;19.014;2022-08-04T05:52:24;7.50;;;3.40;;
58760;SDS011;44529;47.464;19.014;2022-08-04T05:55:28;7.35;;;3.40;;
58760;SDS011;44529;47.464;19.014;2022-08-04T05:58:51;6.60;;;3.50;;
58760;SDS011;44529;47.464;19.014;2022-08-04T06:01:55;5.43;;;3.00;;
58760;SDS011;44529;47.464;19.014;2022-08-04T06:05:00;3.53;;;3.15;;
58760;SDS011;44529;47.464;19.014;2022-08-04T06:08:03;8.00;;;3.10;;
58760;SDS011;44529;47.464;19.014;2022-08-04T06:11:15;3.37;;;3.08;;
58760;SDS011;44529;47.464;19.014;2022-08-04T06:14:19;6.30;;;3.08;;
58760;SDS011;44529;47.464;19.014;2022-08-04T06:17:31;4.55;;;3.08;;
58760;SDS011;44529;47.464;19.014;2022-08-04T06:20:56;6.10;;;3.20;;
58760;SDS011;44529;47.464;19.014;2022-08-04T06:24:01;4.60;;;3.15;;
58760;SDS011;44529;47.464;19.014;2022-08-04T06:27:07;4.45;;;2.92;;
58760;SDS011;44529;47.464;19.014;2022-08-04T06:30:10;3.62;;;2.80;;
58760;SDS011;44529;47.464;19.014;2022-08-04T06:33:15;6.80;;;2.87;;
58760;SDS011;44529;47.464;19.014;2022-08-04T06:36:31;3.25;;;2.90;;
58760;SDS011;44529;47.464;19.014;2022-08-04T06:39:37;6.43;;;3.00;;
58760;SDS011;44529;47.464;19.014;2022-08-04T06:42:40;5.43;;;2.80;;
58760;SDS011;44529;47.464;19.014;2022-08-04T06:45:43;7.43;;;3.28;;
58760;SDS011;44529;47.464;19.014;2022-08-04T06:48:46;8.25;;;3.15;;
58760;SDS011;44529;47.464;19.014;2022-08-04T06:51:51;3.58;;;2.95;;
58760;SDS011;44529;47.464;19.014;2022-08-04T06:54:55;5.60;;;3.35;;
58760;SDS011;44529;47.464;19.014;2022-08-04T06:57:58;6.80;;;3.03;;
58760;SDS011;44529;47.464;19.014;2022-08-04T07:01:04;11.90;;;3.05;;
58760;SDS011;44529;47.464;19.014;2022-08-04T07:04:07;6.18;;;2.80;;
58760;SDS011;44529;47.464;19.014;2022-08-04T07:07:12;5.68;;;2.87;;
58760;SDS011;44529;47.464;19.014;2022-08-04T07:10:16;7.15;;;2.85;;
58760;SDS011;44529;47.464;19.014;2022-08-04T07:13:23;4.85;;;2.70;;
58760;SDS011;44529;47.464;19.014;2022-08-04T07:16:26;7.15;;;2.78;;
58760;SDS011;44529;47.464;19.014;2022-08-04T07:19:32;6.25;;;2.95;;
58760;SDS011;44529;47.464;19.014;2022-08-04T07:22:36;8.20;;;2.60;;
58760;SDS011;44529;47.464;19.014;2022-08-04T07:25:38;5.18;;;2.78;;
58760;SDS011;44529;47.464;19.014;2022-08-04T07:29:02;5.85;;;2.67;;
58760;SDS011;44529;47.464;19.014;2022-08-04T07:32:05;4.25;;;2.70;;
58760;SDS011;44529;47.464;19.014;2022-08-04T07:35:07;4.07;;;2.58;;
58760;SDS011;44529;47.464;19.014;2022-08-04T07:38:31;4.37;;;2.60;;
58760;SDS011;44529;47.464;19.014;2022-08-04T07:41:38;4.35;;;2.53;;
58760;SDS011;44529;47.464;19.014;2022-08-04T07:44:49;2.90;;;2.60;;
58760;SDS011;44529;47.464;19.014;2022-08-04T07:47:53;3.50;;;2.15;;
58760;SDS011;44529;47.464;19.014;2022-08-04T07:51:07;8.20;;;2.45;;
58760;SDS011;44529;47.464;19.014;2022-08-04T07:54:09;4.87;;;2.60;;
58760;SDS011;44529;47.464;19.014;2022-08-04T07:57:14;5.47;;;2.40;;
58760;SDS011;44529;47.464;19.014;2022-08-04T08:00:39;4.15;;;2.28;;
58760;SDS011;44529;47.464;19.014;2022-08-04T08:03:42;2.85;;;2.65;;
58760;SDS011;44529;47.464;19.014;2022-08-04T08:06:44;5.95;;;2.15;;
58760;SDS011;44529;47.464;19.014;2022-08-04T08:09:47;6.87;;;2.80;;
58760;SDS011;44529;47.464;19.014;2022-08-04T08:12:50;8.80;;;2.65;;
58760;SDS011;44529;47.464;19.014;2022-08-04T08:15:54;4.60;;;3.20;;
58760;SDS011;44529;47.464;19.014;2022-08-04T08:18:56;4.32;;;2.20;;
58760;SDS011;44529;47.464;19.014;2022-08-04T08:21:59;5.80;;;2.70;;
58760;SDS011;44529;47.464;19.014;2022-08-04T08:25:05;4.05;;;2.70;;
58760;SDS011;44529;47.464;19.014;2022-08-04T08:28:08;4.00;;;2.50;;
58760;SDS011;44529;47.464;19.014;2022-08-04T08:31:11;5.12;;;2.50;;
58760;SDS011;44529;47.464;19.014;2022-08-04T08:34:14;7.15;;;2.70;;
58760;SDS011;44529;47.464;19.014;2022-08-04T08:37:31;6.93;;;2.35;;
58760;SDS011;44529;47.464;19.014;2022-08-04T08:40:51;3.83;;;2.42;;
58760;SDS011;44529;47.464;19.014;2022-08-04T08:44:03;4.55;;;2.40;;
58760;SDS011;44529;47.464;19.014;2022-08-04T08:47:44;5.12;;;2.72;;
58760;SDS011;44529;47.464;19.014;2022-08-04T08:58:16;8.35;;;2.72;;
58760;SDS011;44529;47.464;19.014;2022-08-04T09:25:57;2.58;;;2.35;;
58760;SDS011;44529;47.464;19.014;2022-08-04T09:29:16;6.85;;;2.40;;
58760;SDS011;44529;47.464;19.014;2022-08-04T09:35:56;7.35;;;2.55;;
58760;SDS011;44529;47.464;19.014;2022-08-04T09:39:10;5.60;;;2.50;;
58760;SDS011;44529;47.464;19.014;2022-08-04T09:49:09;9.73;;;2.80;;
58760;SDS011;44529;47.464;19.014;2022-08-04T09:52:25;7.97;;;3.05;;
58760;SDS011;44529;47.464;19.014;2022-08-04T09:59:23;5.65;;;2.67;;
58760;SDS011;44529;47.464;19.014;2022-08-04T10:02:39;3.55;;;2.42;;
58760;SDS011;44529;47.464;19.014;2022-08-04T10:05:48;4.00;;;2.70;;
58760;SDS011;44529;47.464;19.014;2022-08-04T10:09:11;2.90;;;2.30;;
58760;SDS011;44529;47.464;19.014;2022-08-04T10:12:30;4.07;;;2.60;;
58760;SDS011;44529;47.464;19.014;2022-08-04T10:15:44;4.05;;;2.75;;
58760;SDS011;44529;47.464;19.014;2022-08-04T10:19:13;2.78;;;2.58;;
58760;SDS011;44529;47.464;19.014;2022-08-04T10:22:26;3.83;;;2.85;;
58760;SDS011;44529;47.464;19.014;2022-08-04T10:29:11;5.28;;;2.40;;
58760;SDS011;44529;47.464;19.014;2022-08-04T10:35:25;4.37;;;2.65;;
58760;SDS011;44529;47.464;19.014;2022-08-04T10:38:41;2.50;;;2.25;;
58760;SDS011;44529;47.464;19.014;2022-08-04T10:41:51;3.03;;;2.47;;
58760;SDS011;44529;47.464;19.014;2022-08-04T10:45:13;3.45;;;2.60;;
58760;SDS011;44529;47.464;19.014;2022-08-04T10:48:19;3.30;;;2.67;;
58760;SDS011;44529;47.464;19.014;2022-08-04T10:51:46;3.67;;;2.35;;
58760;SDS011;44529;47.464;19.014;2022-08-04T10:58:19;2.47;;;2.28;;
58760;SDS011;44529;47.464;19.014;2022-08-04T11:01:47;4.03;;;2.53;;
58760;SDS011;44529;47.464;19.014;2022-08-04T11:08:46;3.05;;;2.58;;
58760;SDS011;44529;47.464;19.014;2022-08-04T11:11:56;2.70;;;2.45;;
58760;SDS011;44529;47.464;19.014;2022-08-04T11:15:07;3.60;;;2.50;;
58760;SDS011;44529;47.464;19.014;2022-08-04T11:18:18;3.83;;;2.35;;
58760;SDS011;44529;47.464;19.014;2022-08-04T11:21:31;2.80;;;2.60;;
58760;SDS011;44529;47.464;19.014;2022-08-04T11:24:36;5.07;;;2.90;;
58760;SDS011;44529;47.464;19.014;2022-08-04T11:28:02;4.97;;;2.78;;
58760;SDS011;44529;47.464;19.014;2022-08-04T11:31:31;2.72;;;2.50;;
58760;SDS011;44529;47.464;19.014;2022-08-04T11:34:36;2.70;;;2.50;;
58760;SDS011;44529;47.464;19.014;2022-08-04T11:37:57;3.95;;;2.65;;
58760;SDS011;44529;47.464;19.014;2022-08-04T11:41:10;4.25;;;2.72;;
58760;SDS011;44529;47.464;19.014;2022-08-04T11:44:21;3.67;;;2.47;;
58760;SDS011;44529;47.464;19.014;2022-08-04T11:47:32;2.72;;;2.62;;
58760;SDS011;44529;47.464;19.014;2022-08-04T11:50:52;3.70;;;2.62;;
58760;SDS011;44529;47.464;19.014;2022-08-04T11:53:55;4.25;;;2.37;;
58760;SDS011;44529;47.464;19.014;2022-08-04T11:56:58;2.72;;;2.53;;
58760;SDS011;44529;47.464;19.014;2022-08-04T12:00:01;3.35;;;2.90;;
58760;SDS011;44529;47.464;19.014;2022-08-04T12:03:18;2.85;;;2.62;;
58760;SDS011;44529;47.464;19.014;2022-08-04T12:06:43;3.28;;;3.03;;
58760;SDS011;44529;47.464;19.014;2022-08-04T12:13:42;3.08;;;2.53;;
58760;SDS011;44529;47.464;19.014;2022-08-04T12:16:55;3.10;;;2.90;;
58760;SDS011;44529;47.464;19.014;2022-08-04T12:20:02;4.05;;;2.75;;
58760;SDS011;44529;47.464;19.014;2022-08-04T12:23:37;3.50;;;3.15;;
58760;SDS011;44529;47.464;19.014;2022-08-04T12:26:43;3.00;;;2.72;;
58760;SDS011;44529;47.464;19.014;2022-08-04T12:30:01;3.72;;;3.12;;
58760;SDS011;44529;47.464;19.014;2022-08-04T12:33:37;16.35;;;3.37;;
58760;SDS011;44529;47.464;19.014;2022-08-04T12:37:06;4.85;;;2.87;;
58760;SDS011;44529;47.464;19.014;2022-08-04T12:40:12;4.75;;;3.20;;
58760;SDS011;44529;47.464;19.014;2022-08-04T12:43:38;4.32;;;3.03;;
58760;SDS011;44529;47.464;19.014;2022-08-04T12:46:45;7.20;;;3.20;;
58760;SDS011;44529;47.464;19.014;2022-08-04T12:49:48;4.43;;;2.90;;
58760;SDS011;44529;47.464;19.014;2022-08-04T12:53:01;3.75;;;3.42;;
58760;SDS011;44529;47.464;19.014;2022-08-04T13:02:41;3.00;;;2.80;;
58760;SDS011;44529;47.464;19.014;2022-08-04T13:05:47;2.87;;;2.67;;
58760;SDS011;44529;47.464;19.014;2022-08-04T13:08:55;5.75;;;3.12;;
58760;SDS011;44529;47.464;19.014;2022-08-04T13:12:15;3.62;;;2.87;;
58760;SDS011;44529;47.464;19.014;2022-08-04T13:15:22;5.03;;;3.17;;
58760;SDS011;44529;47.464;19.014;2022-08-04T13:18:29;3.95;;;2.80;;
58760;SDS011;44529;47.464;19.014;2022-08-04T13:21:34;7.72;;;3.30;;
58760;SDS011;44529;47.464;19.014;2022-08-04T13:25:03;4.43;;;2.85;;
58760;SDS011;44529;47.464;19.014;2022-08-04T13:28:26;3.37;;;3.08;;
58760;SDS011;44529;47.464;19.014;2022-08-04T13:31:30;9.18;;;3.55;;
58760;SDS011;44529;47.464;19.014;2022-08-04T13:34:39;3.87;;;3.37;;
58760;SDS011;44529;47.464;19.014;2022-08-04T13:37:50;14.05;;;3.35;;
58760;SDS011;44529;47.464;19.014;2022-08-04T13:40:55;4.07;;;3.50;;
58760;SDS011;44529;47.464;19.014;2022-08-04T13:44:01;3.47;;;3.17;;
58760;SDS011;44529;47.464;19.014;2022-08-04T13:47:26;4.10;;;3.17;;
58760;SDS011;44529;47.464;19.014;2022-08-04T13:50:32;3.75;;;2.90;;
58760;SDS011;44529;47.464;19.014;2022-08-04T13:53:37;3.83;;;2.78;;
58760;SDS011;44529;47.464;19.014;2022-08-04T13:56:43;4.10;;;2.67;;
58760;SDS011;44529;47.464;19.014;2022-08-04T13:59:51;3.00;;;2.80;;
58760;SDS011;44529;47.464;19.014;2022-08-04T14:02:59;3.40;;;3.10;;
58760;SDS011;44529;47.464;19.014;2022-08-04T14:06:29;7.80;;;3.12;;
58760;SDS011;44529;47.464;19.014;2022-08-04T14:09:35;3.55;;;3.05;;
58760;SDS011;44529;47.464;19.014;2022-08-04T14:12:46;3.17;;;2.87;;
58760;SDS011;44529;47.464;19.014;2022-08-04T14:15:50;5.75;;;2.83;;
58760;SDS011;44529;47.464;19.014;2022-08-04T14:19:05;2.85;;;2.65;;
58760;SDS011;44529;47.464;19.014;2022-08-04T14:22:09;6.78;;;3.28;;
58760;SDS011;44529;47.464;19.014;2022-08-04T14:28:36;4.43;;;2.62;;
58760;SDS011;44529;47.464;19.014;2022-08-04T14:31:59;5.25;;;2.67;;
58760;SDS011;44529;47.464;19.014;2022-08-04T14:35:11;3.17;;;2.87;;
58760;SDS011;44529;47.464;19.014;2022-08-04T14:38:14;6.55;;;3.03;;
58760;SDS011;44529;47.464;19.014;2022-08-04T14:41:17;3.03;;;2.83;;
58760;SDS011;44529;47.464;19.014;2022-08-04T14:44:21;3.20;;;2.90;;
58760;SDS011;44529;47.464;19.014;2022-08-04T14:47:39;2.90;;;2.70;;
58760;SDS011;44529;47.464;19.014;2022-08-04T14:50:54;3.28;;;3.00;;
58760;SDS011;44529;47.464;19.014;2022-08-04T14:53:57;2.80;;;2.60;;
58760;SDS011;44529;47.464;19.014;2022-08-04T14:57:03;3.83;;;3.10;;
58760;SDS011;44529;47.464;19.014;2022-08-04T15:00:08;5.47;;;2.95;;
58760;SDS011;44529;47.464;19.014;2022-08-04T15:03:16;6.72;;;3.10;;
58760;SDS011;44529;47.464;19.014;2022-08-04T15:06:21;3.35;;;2.78;;
58760;SDS011;44529;47.464;19.014;2022-08-04T15:09:27;6.30;;;3.28;;
58760;SDS011;44529;47.464;19.014;2022-08-04T15:12:29;4.95;;;2.97;;
58760;SDS011;44529;47.464;19.014;2022-08-04T15:15:32;4.82;;;2.90;;
58760;SDS011;44529;47.464;19.014;2022-08-04T15:18:38;6.43;;;3.03;;
58760;SDS011;44529;47.464;19.014;2022-08-04T15:21:42;3.55;;;3.22;;
58760;SDS011;44529;47.464;19.014;2022-08-04T15:24:44;3.22;;;2.90;;
58760;SDS011;44529;47.464;19.014;2022-08-04T15:27:56;4.20;;;2.80;;
58760;SDS011;44529;47.464;19.014;2022-08-04T15:31:00;4.37;;;3.05;;
58760;SDS011;44529;47.464;19.014;2022-08-04T15:34:05;3.83;;;2.65;;
58760;SDS011;44529;47.464;19.014;2022-08-04T15:37:09;2.90;;;2.70;;
58760;SDS011;44529;47.464;19.014;2022-08-04T15:40:13;3.35;;;2.92;;
58760;SDS011;44529;47.464;19.014;2022-08-04T15:47:08;3.25;;;2.95;;
58760;SDS011;44529;47.464;19.014;2022-08-04T15:50:12;3.62;;;2.90;;
58760;SDS011;44529;47.464;19.014;2022-08-04T15:56:52;6.62;;;3.03;;
58760;SDS011;44529;47.464;19.014;2022-08-04T16:00:05;2.92;;;2.80;;
58760;SDS011;44529;47.464;19.014;2022-08-04T16:07:03;5.18;;;3.05;;
58760;SDS011;44529;47.464;19.014;2022-08-04T16:13:30;9.20;;;3.17;;
58760;SDS011;44529;47.464;19.014;2022-08-04T16:22:52;3.20;;;2.90;;
58760;SDS011;44529;47.464;19.014;2022-08-04T16:25:59;4.97;;;2.78;;
58760;SDS011;44529;47.464;19.014;2022-08-04T16:29:48;3.12;;;2.78;;
58760;SDS011;44529;47.464;19.014;2022-08-04T16:32:34;4.10;;;3.00;;
58760;SDS011;44529;47.464;19.014;2022-08-04T16:35:40;3.20;;;2.90;;
58760;SDS011;44529;47.464;19.014;2022-08-04T16:39:04;3.33;;;3.10;;
58760;SDS011;44529;47.464;19.014;2022-08-04T16:45:40;4.85;;;3.10;;
58760;SDS011;44529;47.464;19.014;2022-08-04T16:48:43;4.97;;;2.85;;
58760;SDS011;44529;47.464;19.014;2022-08-04T16:52:08;3.90;;;3.20;;
58760;SDS011;44529;47.464;19.014;2022-08-04T16:55:21;4.50;;;3.30;;
58760;SDS011;44529;47.464;19.014;2022-08-04T16:58:32;5.70;;;3.40;;
58760;SDS011;44529;47.464;19.014;2022-08-04T17:01:48;5.68;;;3.20;;
58760;SDS011;44529;47.464;19.014;2022-08-04T17:04:51;3.42;;;3.12;;
58760;SDS011;44529;47.464;19.014;2022-08-04T17:08:09;3.00;;;2.80;;
58760;SDS011;44529;47.464;19.014;2022-08-04T17:11:31;3.47;;;2.92;;
58760;SDS011;44529;47.464;19.014;2022-08-04T17:14:33;4.35;;;3.03;;
58760;SDS011;44529;47.464;19.014;2022-08-04T17:17:35;2.85;;;2.65;;
58760;SDS011;44529;47.464;19.014;2022-08-04T17:21:00;5.62;;;3.20;;
58760;SDS011;44529;47.464;19.014;2022-08-04T17:24:04;5.57;;;3.37;;
58760;SDS011;44529;47.464;19.014;2022-08-04T17:27:14;4.85;;;3.28;;
58760;SDS011;44529;47.464;19.014;2022-08-04T17:30:38;4.22;;;3.83;;
58760;SDS011;44529;47.464;19.014;2022-08-04T17:33:49;3.53;;;3.20;;
58760;SDS011;44529;47.464;19.014;2022-08-04T17:37:00;6.43;;;3.10;;
58760;SDS011;44529;47.464;19.014;2022-08-04T17:40:24;4.55;;;3.80;;
58760;SDS011;44529;47.464;19.014;2022-08-04T17:43:41;4.22;;;3.42;;
58760;SDS011;44529;47.464;19.014;2022-08-04T17:47:06;4.85;;;3.20;;
58760;SDS011;44529;47.464;19.014;2022-08-04T17:50:27;5.62;;;3.30;;
58760;SDS011;44529;47.464;19.014;2022-08-04T17:53:32;4.70;;;3.33;;
58760;SDS011;44529;47.464;19.014;2022-08-04T17:56:57;3.30;;;3.00;;
58760;SDS011;44529;47.464;19.014;2022-08-04T18:00:01;5.45;;;3.42;;
58760;SDS011;44529;47.464;19.014;2022-08-04T18:03:22;4.18;;;3.42;;
58760;SDS011;44529;47.464;19.014;2022-08-04T18:06:31;6.15;;;3.42;;
58760;SDS011;44529;47.464;19.014;2022-08-04T18:09:38;5.03;;;3.70;;
58760;SDS011;44529;47.464;19.014;2022-08-04T18:13:08;4.05;;;3.35;;
58760;SDS011;44529;47.464;19.014;2022-08-04T18:16:15;4.68;;;3.53;;
58760;SDS011;44529;47.464;19.014;2022-08-04T18:19:24;4.23;;;3.93;;
58760;SDS011;44529;47.464;19.014;2022-08-04T18:22:32;3.97;;;3.67;;
58760;SDS011;44529;47.464;19.014;2022-08-04T18:25:35;6.60;;;3.75;;
58760;SDS011;44529;47.464;19.014;2022-08-04T18:28:57;5.43;;;3.10;;
58760;SDS011;44529;47.464;19.014;2022-08-04T18:32:00;5.53;;;3.70;;
58760;SDS011;44529;47.464;19.014;2022-08-04T18:35:02;3.83;;;3.37;;
58760;SDS011;44529;47.464;19.014;2022-08-04T18:38:08;4.93;;;3.50;;
58760;SDS011;44529;47.464;19.014;2022-08-04T18:41:23;8.05;;;3.60;;
58760;SDS011;44529;47.464;19.014;2022-08-04T18:44:27;5.53;;;4.00;;
58760;SDS011;44529;47.464;19.014;2022-08-04T18:47:32;5.87;;;4.22;;
58760;SDS011;44529;47.464;19.014;2022-08-04T18:50:54;8.07;;;4.10;;
58760;SDS011;44529;47.464;19.014;2022-08-04T18:54:12;9.55;;;3.75;;
58760;SDS011;44529;47.464;19.014;2022-08-04T18:57:22;7.37;;;3.80;;
58760;SDS011;44529;47.464;19.014;2022-08-04T19:00:45;9.45;;;4.10;;
58760;SDS011;44529;47.464;19.014;2022-08-04T19:03:49;7.37;;;3.97;;
58760;SDS011;44529;47.464;19.014;2022-08-04T19:06:58;9.32;;;4.30;;
58760;SDS011;44529;47.464;19.014;2022-08-04T19:10:21;8.10;;;4.40;;
58760;SDS011;44529;47.464;19.014;2022-08-04T19:13:27;7.37;;;4.10;;
58760;SDS011;44529;47.464;19.014;2022-08-04T19:16:36;6.80;;;4.00;;
58760;SDS011;44529;47.464;19.014;2022-08-04T19:19:41;4.97;;;3.80;;
58760;SDS011;44529;47.464;19.014;2022-08-04T19:22:50;5.05;;;4.62;;
58760;SDS011;44529;47.464;19.014;2022-08-04T19:26:14;7.00;;;3.60;;
58760;SDS011;44529;47.464;19.014;2022-08-04T19:29:29;8.98;;;3.50;;
58760;SDS011;44529;47.464;19.014;2022-08-04T19:32:41;6.15;;;3.92;;
58760;SDS011;44529;47.464;19.014;2022-08-04T19:35:49;3.83;;;3.42;;
58760;SDS011;44529;47.464;19.014;2022-08-04T19:38:52;3.85;;;3.42;;
58760;SDS011;44529;47.464;19.014;2022-08-04T19:41:55;6.53;;;3.60;;
58760;SDS011;44529;47.464;19.014;2022-08-04T19:45:08;9.60;;;3.80;;
58760;SDS011;44529;47.464;19.014;2022-08-04T19:48:17;7.80;;;3.90;;
58760;SDS011;44529;47.464;19.014;2022-08-04T19:51:21;5.70;;;3.70;;
58760;SDS011;44529;47.464;19.014;2022-08-04T19:54:23;4.62;;;3.60;;
58760;SDS011;44529;47.464;19.014;2022-08-04T19:57:28;4.32;;;3.70;;
58760;SDS011;44529;47.464;19.014;2022-08-04T20:00:37;6.37;;;3.85;;
58760;SDS011;44529;47.464;19.014;2022-08-04T20:03:51;9.45;;;4.20;;
58760;SDS011;44529;47.464;19.014;2022-08-04T20:07:11;4.78;;;4.37;;
58760;SDS011;44529;47.464;19.014;2022-08-04T20:10:16;3.97;;;3.67;;
58760;SDS011;44529;47.464;19.014;2022-08-04T20:13:24;6.35;;;4.55;;
58760;SDS011;44529;47.464;19.014;2022-08-04T20:16:39;7.50;;;4.50;;
58760;SDS011;44529;47.464;19.014;2022-08-04T20:19:41;8.73;;;4.50;;
58760;SDS011;44529;47.464;19.014;2022-08-04T20:22:52;7.47;;;4.37;;
58760;SDS011;44529;47.464;19.014;2022-08-04T20:25:54;7.18;;;4.50;;
58760;SDS011;44529;47.464;19.014;2022-08-04T20:28:57;4.72;;;4.32;;
58760;SDS011;44529;47.464;19.014;2022-08-04T20:32:00;4.70;;;4.28;;
58760;SDS011;44529;47.464;19.014;2022-08-04T20:35:10;6.85;;;4.53;;
58760;SDS011;44529;47.464;19.014;2022-08-04T20:38:17;7.50;;;4.62;;
58760;SDS011;44529;47.464;19.014;2022-08-04T20:41:35;5.32;;;4.72;;
58760;SDS011;44529;47.464;19.014;2022-08-04T20:44:38;4.60;;;4.10;;
58760;SDS011;44529;47.464;19.014;2022-08-04T20:47:47;7.47;;;4.62;;
58760;SDS011;44529;47.464;19.014;2022-08-04T20:50:56;6.45;;;4.90;;
58760;SDS011;44529;47.464;19.014;2022-08-04T20:53:59;8.43;;;5.07;;
58760;SDS011;44529;47.464;19.014;2022-08-04T20:57:02;9.95;;;5.10;;
58760;SDS011;44529;47.464;19.014;2022-08-04T21:00:05;6.47;;;4.60;;
58760;SDS011;44529;47.464;19.014;2022-08-04T21:03:13;5.45;;;4.70;;
58760;SDS011;44529;47.464;19.014;2022-08-04T21:06:16;7.35;;;6.65;;
58760;SDS011;44529;47.464;19.014;2022-08-04T21:09:18;6.85;;;4.53;;
58760;SDS011;44529;47.464;19.014;2022-08-04T21:12:39;6.03;;;4.12;;
58760;SDS011;44529;47.464;19.014;2022-08-04T21:15:41;6.70;;;4.32;;
58760;SDS011;44529;47.464;19.014;2022-08-04T21:19:00;4.47;;;4.07;;
58760;SDS011;44529;47.464;19.014;2022-08-04T21:22:05;4.68;;;4.18;;
58760;SDS011;44529;47.464;19.014;2022-08-04T21:25:11;7.72;;;4.60;;
58760;SDS011;44529;47.464;19.014;2022-08-04T21:28:17;8.23;;;4.55;;
58760;SDS011;44529;47.464;19.014;2022-08-04T21:31:21;6.30;;;4.25;;
58760;SDS011;44529;47.464;19.014;2022-08-04T21:34:24;6.37;;;4.60;;
58760;SDS011;44529;47.464;19.014;2022-08-04T21:37:46;7.80;;;4.47;;
58760;SDS011;44529;47.464;19.014;2022-08-04T21:40:58;7.30;;;4.65;;
58760;SDS011;44529;47.464;19.014;2022-08-04T21:44:03;5.05;;;4.62;;
58760;SDS011;44529;47.464;19.014;2022-08-04T21:47:05;5.75;;;4.28;;
58760;SDS011;44529;47.464;19.014;2022-08-04T21:50:24;6.20;;;4.53;;
58760;SDS011;44529;47.464;19.014;2022-08-04T21:53:31;5.78;;;4.70;;
58760;SDS011;44529;47.464;19.014;2022-08-04T21:56:34;7.25;;;4.70;;
58760;SDS011;44529;47.464;19.014;2022-08-04T21:59:38;8.63;;;5.07;;
58760;SDS011;44529;47.464;19.014;2022-08-04T22:02:47;9.00;;;4.90;;
58760;SDS011;44529;47.464;19.014;2022-08-04T22:05:54;5.78;;;4.50;;
58760;SDS011;44529;47.464;19.014;2022-08-04T22:08:57;5.57;;;4.43;;
58760;SDS011;44529;47.464;19.014;2022-08-04T22:11:59;6.80;;;3.95;;
58760;SDS011;44529;47.464;19.014;2022-08-04T22:15:04;5.30;;;4.45;;
58760;SDS011;44529;47.464;19.014;2022-08-04T22:18:28;5.45;;;3.95;;
58760;SDS011;44529;47.464;19.014;2022-08-04T22:21:31;5.47;;;4.00;;
58760;SDS011;44529;47.464;19.014;2022-08-04T22:24:40;5.80;;;3.70;;
58760;SDS011;44529;47.464;19.014;2022-08-04T22:27:42;7.82;;;4.10;;
58760;SDS011;44529;47.464;19.014;2022-08-04T22:31:09;8.40;;;4.00;;
58760;SDS011;44529;47.464;19.014;2022-08-04T22:34:25;6.70;;;4.10;;
58760;SDS011;44529;47.464;19.014;2022-08-04T22:37:31;8.13;;;3.75;;
58760;SDS011;44529;47.464;19.014;2022-08-04T22:40:43;6.45;;;3.92;;
58760;SDS011;44529;47.464;19.014;2022-08-04T22:43:48;6.37;;;3.87;;
58760;SDS011;44529;47.464;19.014;2022-08-04T22:46:55;4.57;;;3.65;;
58760;SDS011;44529;47.464;19.014;2022-08-04T22:50:00;5.40;;;3.70;;
58760;SDS011;44529;47.464;19.014;2022-08-04T22:53:23;4.90;;;3.50;;
58760;SDS011;44529;47.464;19.014;2022-08-04T22:56:25;5.78;;;3.40;;
58760;SDS011;44529;47.464;19.014;2022-08-04T22:59:39;3.92;;;3.62;;